createdAt,value
2019-01-16T00:02:14.697Z,97386.11
2019-01-16T00:05:04.541Z,97382.03
2019-01-16T00:07:48.967Z,97387.53
2019-01-16T00:10:32.471Z,97379.20
2019-01-16T00:13:13.443Z,97377.61
2019-01-16T00:16:02.145Z,97377.61
2019-01-16T00:18:51.978Z,97376.09
2019-01-16T00:21:35.851Z,97376.09
2019-01-16T00:24:20.819Z,97363.92
2019-01-16T00:27:09.206Z,97360.98
2019-01-16T00:29:53.715Z,97357.63
2019-01-16T00:32:43.166Z,97364.40
2019-01-16T00:35:31.677Z,97364.40
2019-01-16T00:38:20.679Z,97346.28
2019-01-16T00:41:01.417Z,97346.28
2019-01-16T00:43:42.930Z,97350.22
2019-01-16T00:46:25.347Z,97350.22
2019-01-16T00:49:13.827Z,97346.10
2019-01-16T00:52:03.907Z,97344.44
2019-01-16T00:54:41.984Z,97344.63
2019-01-16T00:57:30.302Z,97350.88
2019-01-16T01:00:12.232Z,97350.88
2019-01-16T01:02:53.197Z,97341.22
2019-01-16T01:05:35.100Z,97335.19
2019-01-16T01:08:23.368Z,97335.19
2019-01-16T01:11:13.598Z,97332.07
2019-01-16T01:14:01.975Z,97332.07
2019-01-16T01:16:40.693Z,97346.56
2019-01-16T01:19:27.942Z,97331.69
2019-01-16T01:22:08.037Z,97335.20
2019-01-16T01:24:56.525Z,97335.20
2019-01-16T01:28:02.329Z,97333.06
2019-01-16T01:30:41.203Z,97335.58
2019-01-16T01:33:22.211Z,97330.98
2019-01-16T01:36:05.209Z,97330.55
2019-01-16T01:38:53.712Z,97330.55
2019-01-16T01:41:42.373Z,97329.27
2019-01-16T01:44:20.352Z,97331.41
2019-01-16T01:46:58.300Z,97330.83
2019-01-16T01:49:37.794Z,97330.03
2019-01-16T01:52:15.145Z,97333.40
2019-01-16T01:55:03.354Z,97329.94
2019-01-16T01:57:42.621Z,97333.64
2019-01-16T02:00:32.636Z,97330.03
2019-01-16T02:03:17.327Z,97337.50
2019-01-16T02:06:06.651Z,97337.50
2019-01-16T02:08:45.713Z,97326.09
2019-01-16T02:11:33.899Z,97334.45
2019-01-16T02:14:22.363Z,97331.92
2019-01-16T02:17:01.301Z,97328.80
2019-01-16T02:19:41.859Z,97338.08
2019-01-16T02:22:27.440Z,97338.08
2019-01-16T02:25:15.703Z,97326.47
2019-01-16T02:30:59.786Z,97329.36
2019-01-16T02:33:48.850Z,97325.56
2019-01-16T02:36:37.262Z,97323.72
2019-01-16T02:39:12.229Z,97314.77
2019-01-16T02:42:00.426Z,97308.75
2019-01-16T02:44:43.796Z,97306.05
2019-01-16T02:47:28.555Z,97305.85
2019-01-16T02:50:16.748Z,97300.84
2019-01-16T02:53:02.379Z,97291.08
2019-01-16T02:55:45.618Z,97287.14
2019-01-16T02:58:28.416Z,97290.45
2019-01-16T03:01:16.654Z,97287.30
2019-01-16T03:04:00.959Z,97287.30
2019-01-16T03:06:38.536Z,97282.41
2019-01-16T03:09:27.165Z,97282.44
2019-01-16T03:12:10.712Z,97278.55
2019-01-16T03:14:47.444Z,97274.11
2019-01-16T03:17:33.146Z,97274.11
2019-01-16T03:20:19.152Z,97273.83
2019-01-16T03:23:04.253Z,97266.06
2019-01-16T03:25:40.375Z,97273.83
2019-01-16T03:28:22.948Z,97270.14
2019-01-16T03:30:58.497Z,97247.39
2019-01-16T03:33:38.709Z,97258.67
2019-01-16T03:36:18.426Z,97258.63
2019-01-16T03:38:55.978Z,97249.99
2019-01-16T03:41:44.332Z,97250.94
2019-01-16T03:44:33.695Z,97247.28
2019-01-16T03:47:21.897Z,97246.69
2019-01-16T03:50:03.597Z,97241.18
2019-01-16T03:52:53.785Z,97236.67
2019-01-16T03:55:37.299Z,97233.28
2019-01-16T03:58:25.999Z,97234.37
2019-01-16T04:01:16.332Z,97231.77
2019-01-16T04:03:58.381Z,97224.84
2019-01-16T04:06:37.737Z,97220.47
2019-01-16T04:09:29.300Z,97220.60
2019-01-16T04:12:17.445Z,97223.50
2019-01-16T04:15:06.162Z,97216.22
2019-01-16T04:17:54.547Z,97215.19
2019-01-16T04:20:42.922Z,97204.48
2019-01-16T04:23:33.488Z,97204.48
2019-01-16T04:26:16.726Z,97203.38
2019-01-16T04:29:05.147Z,97202.59
2019-01-16T04:31:47.367Z,97202.59
2019-01-16T04:34:35.717Z,97193.79
2019-01-16T04:37:17.775Z,97196.30
2019-01-16T04:40:00.821Z,97188.46
2019-01-16T04:42:39.236Z,97188.46
2019-01-16T04:45:28.302Z,97181.64
2019-01-16T04:48:17.995Z,97180.63
2019-01-16T04:51:06.409Z,97180.63
2019-01-16T04:53:46.991Z,97171.53
2019-01-16T04:56:35.375Z,97159.17
2019-01-16T04:59:24.154Z,97159.17
2019-01-16T05:02:12.438Z,97160.06
2019-01-16T05:05:01.250Z,97160.06
2019-01-16T05:07:45.897Z,97151.26
2019-01-16T05:10:23.145Z,97153.09
2019-01-16T05:13:11.552Z,97141.08
2019-01-16T05:15:59.118Z,97145.39
2019-01-16T05:18:43.113Z,97137.21
2019-01-16T05:21:31.619Z,97137.21
2019-01-16T05:24:16.040Z,97137.41
2019-01-16T05:27:06.942Z,97131.05
2019-01-16T05:29:55.438Z,97131.05
2019-01-16T05:32:35.840Z,97130.88
2019-01-16T05:35:19.015Z,97119.42
2019-01-16T05:37:56.958Z,97119.42
2019-01-16T05:40:45.233Z,97121.45
2019-01-16T05:43:26.486Z,97112.23
2019-01-16T05:46:14.920Z,97118.84
2019-01-16T05:48:53.241Z,97118.84
2019-01-16T05:51:44.098Z,97112.91
2019-01-16T05:54:23.809Z,97112.91
2019-01-16T05:57:02.823Z,97107.61
2019-01-16T05:59:48.445Z,97100.54
2019-01-16T06:02:34.923Z,97098.73
2019-01-16T06:05:20.967Z,97086.97
2019-01-16T06:08:06.844Z,97093.80
2019-01-16T06:10:55.860Z,97097.84
2019-01-16T06:13:33.276Z,97094.72
2019-01-16T06:16:16.415Z,97105.33
2019-01-16T06:19:01.793Z,97102.09
2019-01-16T06:21:48.327Z,97102.09
2019-01-16T06:24:36.613Z,97095.40
2019-01-16T06:27:22.344Z,97101.38
2019-01-16T06:30:11.181Z,97093.73
2019-01-16T06:32:53.175Z,97093.73
2019-01-16T06:35:43.982Z,97090.20
2019-01-16T06:38:32.379Z,97088.59
2019-01-16T06:41:15.732Z,97085.53
2019-01-16T06:44:04.569Z,97085.53
2019-01-16T06:46:52.943Z,97092.41
2019-01-16T06:49:28.039Z,97082.41
2019-01-16T06:52:04.473Z,97086.72
2019-01-16T06:54:50.699Z,97086.72
2019-01-16T06:57:39.291Z,97093.02
2019-01-16T07:00:21.581Z,97094.72
2019-01-16T07:03:10.387Z,97093.02
2019-01-16T07:05:53.326Z,97088.97
2019-01-16T07:08:35.443Z,97094.86
2019-01-16T07:11:23.627Z,97084.75
2019-01-16T07:14:06.675Z,97079.72
2019-01-16T07:16:52.384Z,97080.16
2019-01-16T07:19:41.109Z,97082.67
2019-01-16T07:22:26.434Z,97082.67
2019-01-16T07:25:15.090Z,97079.23
2019-01-16T07:27:57.417Z,97068.29
2019-01-16T07:30:37.335Z,97067.85
2019-01-16T07:33:25.490Z,97067.13
2019-01-16T07:36:10.404Z,97067.41
2019-01-16T07:38:54.547Z,97066.11
2019-01-16T07:41:36.437Z,97060.91
2019-01-16T07:44:24.871Z,97073.63
2019-01-16T07:47:08.276Z,97080.02
2019-01-16T07:49:57.308Z,97080.02
2019-01-16T07:52:41.747Z,97064.99
2019-01-16T07:55:32.764Z,97062.20
2019-01-16T07:58:24.093Z,97063.33
2019-01-16T08:01:12.485Z,97058.12
2019-01-16T08:04:08.076Z,97069.30
2019-01-16T08:06:56.555Z,97067.98
2019-01-16T08:09:34.803Z,97071.11
2019-01-16T08:12:25.381Z,97077.53
2019-01-16T08:15:06.800Z,97077.53
2019-01-16T08:17:55.251Z,97078.91
2019-01-16T08:20:45.123Z,97065.38
2019-01-16T08:23:21.426Z,97075.92
2019-01-16T08:26:07.999Z,97079.13
2019-01-16T08:28:57.018Z,97079.13
2019-01-16T08:31:49.529Z,97093.02
2019-01-16T08:34:36.779Z,97093.02
2019-01-16T08:37:17.349Z,97079.44
2019-01-16T08:40:02.074Z,97076.42
2019-01-16T08:42:50.331Z,97076.42
2019-01-16T08:45:30.370Z,97078.16
2019-01-16T08:48:19.280Z,97081.36
2019-01-16T08:51:08.049Z,97081.36
2019-01-16T08:53:56.514Z,97079.03
2019-01-16T08:56:44.839Z,97076.45
2019-01-16T08:59:33.644Z,97076.45
2019-01-16T09:02:21.890Z,97074.23
2019-01-16T09:05:02.410Z,97073.88
2019-01-16T09:07:50.866Z,97071.02
2019-01-16T09:10:35.157Z,97071.02
2019-01-16T09:13:23.692Z,97065.23
2019-01-16T09:16:12.550Z,97052.97
2019-01-16T09:18:54.372Z,97052.97
2019-01-16T09:21:36.177Z,97049.00
2019-01-16T09:24:24.432Z,97042.10
2019-01-16T09:27:30.574Z,97048.05
2019-01-16T09:30:18.020Z,97043.63
2019-01-16T09:33:06.930Z,97037.64
2019-01-16T09:35:50.633Z,97037.64
2019-01-16T09:38:39.165Z,97044.28
2019-01-16T09:41:27.643Z,97042.38
2019-01-16T09:44:16.271Z,97032.34
2019-01-16T09:46:53.942Z,97032.34
2019-01-16T09:49:41.114Z,97033.77
2019-01-16T09:52:29.516Z,97032.17
2019-01-16T09:55:13.005Z,97033.60
2019-01-16T09:58:01.502Z,97031.94
2019-01-16T10:00:51.787Z,97022.27
2019-01-16T10:03:40.253Z,97026.94
2019-01-16T10:06:18.702Z,97009.08
2019-01-16T10:08:56.849Z,97009.08
2019-01-16T10:11:43.669Z,97000.89
2019-01-16T10:14:25.754Z,97000.89
2019-01-16T10:17:16.983Z,96990.52
2019-01-16T10:20:06.708Z,96990.52
2019-01-16T10:22:46.152Z,96983.75
2019-01-16T10:25:29.725Z,96983.75
2019-01-16T10:28:18.603Z,96982.73
2019-01-16T10:31:06.961Z,96970.35
2019-01-16T10:33:55.298Z,96970.35
2019-01-16T10:36:41.473Z,96969.07
2019-01-16T10:39:37.759Z,96971.09
2019-01-16T10:42:20.095Z,96957.16
2019-01-16T10:44:53.723Z,96946.47
2019-01-16T10:47:43.014Z,96951.44
2019-01-16T10:50:32.017Z,96948.55
2019-01-16T10:53:16.795Z,96961.39
2019-01-16T10:55:58.016Z,96964.73
2019-01-16T10:58:39.952Z,96964.73
2019-01-16T11:01:19.905Z,96941.34
2019-01-16T11:04:08.418Z,96937.00
2019-01-16T11:06:46.266Z,96937.20
2019-01-16T11:12:49.681Z,96930.53
2019-01-16T11:15:32.982Z,96930.53
2019-01-16T11:18:21.286Z,96926.91
2019-01-16T11:21:11.168Z,96929.42
2019-01-16T11:23:59.658Z,96917.48
2019-01-16T11:26:47.997Z,96915.31
2019-01-16T11:29:36.495Z,96901.07
2019-01-16T11:32:23.179Z,96895.39
2019-01-16T11:35:12.589Z,96869.63
2019-01-16T11:38:01.169Z,96882.42
2019-01-16T11:40:50.826Z,96868.11
2019-01-16T11:43:28.240Z,96863.56
2019-01-16T11:46:10.235Z,96865.36
2019-01-16T11:48:50.225Z,96865.36
2019-01-16T11:51:38.687Z,96860.05
2019-01-16T11:54:27.136Z,96847.10
2019-01-16T11:57:04.403Z,96847.10
2019-01-16T11:59:47.182Z,96840.72
2019-01-16T12:02:38.293Z,96840.72
2019-01-16T12:05:16.659Z,96825.69
2019-01-16T12:08:04.843Z,96825.69
2019-01-16T12:10:53.165Z,96827.26
2019-01-16T12:13:41.723Z,96826.86
2019-01-16T12:16:29.409Z,96823.54
2019-01-16T12:19:18.356Z,96819.93
2019-01-16T12:22:06.838Z,96807.91
2019-01-16T12:24:55.613Z,96807.61
2019-01-16T12:27:39.553Z,96804.96
2019-01-16T12:30:32.099Z,96804.96
2019-01-16T12:33:10.601Z,96799.30
2019-01-16T12:35:51.101Z,96799.30
2019-01-16T12:38:39.573Z,96785.64
2019-01-16T12:41:20.281Z,96784.13
2019-01-16T12:44:06.522Z,96766.61
2019-01-16T12:46:56.517Z,96768.42
2019-01-16T12:49:44.782Z,96764.25
2019-01-16T12:52:32.208Z,96764.25
2019-01-16T12:55:20.448Z,96763.02
2019-01-16T13:01:15.292Z,96755.17
2019-01-16T13:03:59.662Z,96743.83
2019-01-16T13:06:47.982Z,96729.88
2019-01-16T13:09:27.515Z,96734.80
2019-01-16T13:12:15.736Z,96722.39
2019-01-16T13:14:58.528Z,96722.39
2019-01-16T13:17:46.854Z,96708.23
2019-01-16T13:20:35.729Z,96693.23
2019-01-16T13:23:24.028Z,96688.14
2019-01-16T13:26:12.851Z,96689.20
2019-01-16T13:29:00.624Z,96682.25
2019-01-16T13:31:41.565Z,96688.09
2019-01-16T13:34:30.287Z,96688.09
2019-01-16T13:37:07.489Z,96689.27
2019-01-16T13:39:53.889Z,96681.41
2019-01-16T13:42:32.831Z,96672.88
2019-01-16T13:45:20.872Z,96667.02
2019-01-16T13:47:59.705Z,96660.80
2019-01-16T13:50:48.131Z,96655.37
2019-01-16T13:53:36.676Z,96655.37
2019-01-16T13:56:24.933Z,96646.51
2019-01-16T14:02:45.199Z,96641.39
2019-01-16T14:05:24.177Z,96643.78
2019-01-16T14:08:13.655Z,96642.71
2019-01-16T14:10:49.244Z,96635.23
2019-01-16T14:13:29.983Z,96632.58
2019-01-16T14:16:08.997Z,96633.76
2019-01-16T14:19:19.903Z,96624.89
2019-01-16T14:22:08.576Z,96617.01
2019-01-16T14:25:11.157Z,96617.05
2019-01-16T14:27:59.847Z,96617.75
2019-01-16T14:30:47.436Z,96613.29
2019-01-16T14:33:35.595Z,96601.95
2019-01-16T14:36:18.269Z,96601.95
2019-01-16T14:39:06.809Z,96598.23
2019-01-16T14:41:53.460Z,96596.17
2019-01-16T14:47:37.080Z,96588.11
2019-01-16T14:50:27.556Z,96586.89
2019-01-16T14:53:25.948Z,96582.08
2019-01-16T14:56:12.727Z,96576.52
2019-01-16T14:59:00.905Z,96576.52
2019-01-16T15:01:49.783Z,96574.19
2019-01-16T15:04:33.405Z,96566.76
2019-01-16T15:07:18.862Z,96567.12
2019-01-16T15:09:57.898Z,96567.12
2019-01-16T15:13:08.920Z,96558.81
2019-01-16T15:19:00.362Z,96556.60
2019-01-16T15:21:48.550Z,96546.11
2019-01-16T15:24:28.636Z,96539.59
2019-01-16T15:27:16.819Z,96537.32
2019-01-16T15:30:05.246Z,96537.55
2019-01-16T15:32:50.735Z,96537.55
2019-01-16T15:35:36.292Z,96510.09
2019-01-16T15:38:14.922Z,96516.02
2019-01-16T15:41:03.549Z,96519.77
2019-01-16T15:43:41.024Z,96511.20
2019-01-16T15:46:21.201Z,96505.53
2019-01-16T15:49:09.404Z,96512.89
2019-01-16T15:51:58.141Z,96512.63
2019-01-16T15:54:48.655Z,96512.63
2019-01-16T15:57:30.030Z,96492.72
2019-01-16T16:00:18.022Z,96500.73
2019-01-16T16:03:03.939Z,96488.38
2019-01-16T16:09:09.674Z,96483.45
2019-01-16T16:11:52.724Z,96483.45
2019-01-16T16:14:34.230Z,96487.16
2019-01-16T16:17:16.102Z,96481.83
2019-01-16T16:20:06.576Z,96481.83
2019-01-16T16:22:44.159Z,96470.44
2019-01-16T16:25:25.462Z,96467.64
2019-01-16T16:28:07.745Z,96451.50
2019-01-16T16:30:45.407Z,96458.11
2019-01-16T16:33:33.636Z,96452.39
2019-01-16T16:36:22.251Z,96452.39
2019-01-16T16:39:09.311Z,96438.95
2019-01-16T16:41:46.778Z,96432.55
2019-01-16T16:44:34.451Z,96430.02
2019-01-16T16:47:16.040Z,96419.80
2019-01-16T16:50:02.673Z,96414.28
2019-01-16T16:52:41.592Z,96411.84
2019-01-16T16:55:30.353Z,96410.22
2019-01-16T16:58:08.927Z,96403.06
2019-01-16T17:00:57.700Z,96405.30
2019-01-16T17:03:36.310Z,96406.99
2019-01-16T17:06:19.092Z,96411.17
2019-01-16T17:09:06.944Z,96411.70
2019-01-16T17:11:50.383Z,96411.70
2019-01-16T17:14:29.093Z,96406.52
2019-01-16T17:17:17.609Z,96402.70
2019-01-16T17:19:58.414Z,96411.91
2019-01-16T17:22:47.401Z,96398.20
2019-01-16T17:25:41.120Z,96396.29
2019-01-16T17:28:29.474Z,96396.29
2019-01-16T17:31:17.878Z,96393.02
2019-01-16T17:34:02.856Z,96380.89
2019-01-16T17:36:51.735Z,96384.28
2019-01-16T17:39:40.044Z,96384.28
2019-01-16T17:42:29.095Z,96385.13
2019-01-16T17:45:17.599Z,96385.13
2019-01-16T17:48:02.547Z,96389.35
2019-01-16T17:50:46.640Z,96389.69
2019-01-16T17:53:32.256Z,96389.69
2019-01-16T17:56:13.497Z,96380.20
2019-01-16T17:59:02.142Z,96381.78
2019-01-16T18:01:50.392Z,96375.24
2019-01-16T18:04:29.191Z,96369.62
2019-01-16T18:07:13.377Z,96368.05
2019-01-16T18:10:01.748Z,96368.05
2019-01-16T18:12:51.058Z,96373.22
2019-01-16T18:15:39.997Z,96362.97
2019-01-16T18:18:28.149Z,96366.72
2019-01-16T18:21:16.999Z,96365.31
2019-01-16T18:24:08.423Z,96362.53
2019-01-16T18:26:55.597Z,96369.29
2019-01-16T18:29:34.969Z,96358.81
2019-01-16T18:32:20.235Z,96364.11
2019-01-16T18:35:26.374Z,96352.67
2019-01-16T18:38:07.054Z,96352.67
2019-01-16T18:40:54.634Z,96358.08
2019-01-16T18:43:43.145Z,96346.77
2019-01-16T18:46:31.395Z,96351.09
2019-01-16T18:49:17.350Z,96358.19
2019-01-16T18:52:06.345Z,96344.48
2019-01-16T18:54:49.862Z,96359.18
2019-01-16T18:57:27.804Z,96359.18
2019-01-16T19:00:07.329Z,96360.84
2019-01-16T19:02:55.516Z,96343.23
2019-01-16T19:05:33.803Z,96343.16
2019-01-16T19:08:19.900Z,96348.45
2019-01-16T19:11:00.889Z,96340.80
2019-01-16T19:13:49.210Z,96335.11
2019-01-16T19:16:25.652Z,96335.11
2019-01-16T19:19:08.216Z,96338.59
2019-01-16T19:21:44.999Z,96335.11
2019-01-16T19:24:25.957Z,96335.50
2019-01-16T19:27:08.345Z,96343.30
2019-01-16T19:29:48.118Z,96355.49
2019-01-16T19:32:36.975Z,96355.49
2019-01-16T19:35:21.679Z,96339.47
2019-01-16T19:38:05.110Z,96319.13
2019-01-16T19:40:53.346Z,96305.28
2019-01-16T19:43:36.075Z,96301.92
2019-01-16T19:46:21.756Z,96309.38
2019-01-16T19:49:04.496Z,96314.55
2019-01-16T19:51:45.848Z,96314.45
2019-01-16T19:54:34.654Z,96303.38
2019-01-16T19:57:17.130Z,96314.58
2019-01-16T19:59:59.165Z,96321.06
2019-01-16T20:02:47.592Z,96303.02
2019-01-16T20:05:41.056Z,96308.19
2019-01-16T20:08:21.693Z,96313.60
2019-01-16T20:11:10.443Z,96305.67
2019-01-16T20:13:54.862Z,96299.05
2019-01-16T20:16:43.485Z,96299.04
2019-01-16T20:19:32.337Z,96301.33
2019-01-16T20:22:19.147Z,96295.06
2019-01-16T20:25:07.116Z,96297.84
2019-01-16T20:27:55.785Z,96279.55
2019-01-16T20:30:38.068Z,96279.55
2019-01-16T20:33:19.892Z,96280.88
2019-01-16T20:36:01.669Z,96282.78
2019-01-16T20:38:42.710Z,96280.62
2019-01-16T20:41:31.713Z,96265.70
2019-01-16T20:44:11.324Z,96260.41
2019-01-16T20:46:50.119Z,96248.73
2019-01-16T20:49:34.786Z,96250.39
2019-01-16T20:52:23.305Z,96250.39
2019-01-16T20:55:04.844Z,96252.33
2019-01-16T20:57:53.200Z,96247.16
2019-01-16T21:00:41.728Z,96247.16
2019-01-16T21:03:29.908Z,96248.70
2019-01-16T21:06:14.843Z,96248.70
2019-01-16T21:08:57.182Z,96248.00
2019-01-16T21:11:46.139Z,96254.24
2019-01-16T21:14:34.800Z,96254.22
2019-01-16T21:17:15.733Z,96235.48
2019-01-16T21:19:57.956Z,96231.01
2019-01-16T21:22:46.734Z,96228.81
2019-01-16T21:25:35.518Z,96232.44
2019-01-16T21:28:13.816Z,96234.88
2019-01-16T21:31:02.232Z,96234.88
2019-01-16T21:33:44.562Z,96229.93
2019-01-16T21:36:28.764Z,96230.16
2019-01-16T21:39:17.522Z,96221.05
2019-01-16T21:41:56.974Z,96221.05
2019-01-16T21:44:39.057Z,96224.64
2019-01-16T21:47:29.317Z,96224.64
2019-01-16T21:50:11.575Z,96199.02
2019-01-16T21:52:56.866Z,96207.28
2019-01-16T21:55:36.100Z,96207.66
2019-01-16T21:58:20.273Z,96211.15
2019-01-16T22:01:02.180Z,96220.91
2019-01-16T22:03:50.654Z,96214.75
2019-01-16T22:06:32.089Z,96212.63
2019-01-16T22:09:15.472Z,96213.44
2019-01-16T22:12:04.000Z,96215.83
2019-01-16T22:14:52.419Z,96215.36
2019-01-16T22:17:41.432Z,96203.93
2019-01-16T22:20:20.777Z,96203.93
2019-01-16T22:23:01.857Z,96200.36
2019-01-16T22:25:45.148Z,96210.11
2019-01-16T22:28:28.861Z,96208.92
2019-01-16T22:31:17.246Z,96204.20
2019-01-16T22:33:59.851Z,96205.79
2019-01-16T22:36:41.558Z,96198.68
2019-01-16T22:39:29.809Z,96198.68
2019-01-16T22:42:18.467Z,96200.11
2019-01-16T22:45:00.998Z,96197.62
2019-01-16T22:47:41.434Z,96197.62
2019-01-16T22:50:31.182Z,96188.00
2019-01-16T22:53:19.539Z,96188.00
2019-01-16T22:56:02.797Z,96189.05
2019-01-16T22:58:49.175Z,96177.17
2019-01-16T23:01:24.594Z,96169.59
2019-01-16T23:04:05.482Z,96169.59
2019-01-16T23:06:45.678Z,96177.27
2019-01-16T23:09:27.244Z,96177.27
2019-01-16T23:12:07.513Z,96170.78
2019-01-16T23:14:55.819Z,96152.02
2019-01-16T23:17:41.134Z,96157.30
2019-01-16T23:20:25.820Z,96156.33
2019-01-16T23:23:06.193Z,96164.05
2019-01-16T23:25:49.302Z,96164.05
2019-01-16T23:28:33.759Z,96156.44
2019-01-16T23:31:17.600Z,96152.14
2019-01-16T23:34:06.314Z,96148.05
2019-01-16T23:36:47.130Z,96153.72
2019-01-16T23:39:29.488Z,96153.72
2019-01-16T23:42:17.837Z,96138.66
2019-01-16T23:45:06.293Z,96143.13
2019-01-16T23:47:58.170Z,96138.67
2019-01-16T23:50:46.426Z,96139.28
2019-01-16T23:53:27.764Z,96140.81
2019-01-16T23:56:12.278Z,96133.98
2019-01-16T23:58:57.179Z,96134.24
